Copperton, Utah
Current Conditions -  °F | °C
As of 12:53 PM on Friday 19 Dec 2014 (Local Time) from KSLC Reporting Station
Broken Clouds Broken Clouds  
Wind Chill: 38°   Ceiling: 8500
Heat Index: 44°   Visibility: 10mi
Dew Point: 27°   Wind: 13mph
Humidity: 51%   Direction: 170°S
Pressure: 30.14"   Gusts: NA
Location:  40.5425°N, 112.133°W
Report Text: KSLC 191953Z 17011KT 10SM FEW060 BKN085 BKN200 07/M03 A3014 RMK AO2 SLP209 VIRGA DSNT SW-W AND NW SCSL DSNT NE-E T00671028
Loading
Personal Weather Stations






























Interactive Weather Map New forecast layout! Learn more

10-Day Weather Forecast

Advertisements
Track Severe Weather on mobile